EDT,Max TemperatureF,Mean TemperatureF,Min TemperatureF,Max Dew PointF,MeanDew PointF,Min DewpointF,Max Humidity, Mean Humidity, Min Humidity, Max Sea Level PressureIn, Mean Sea Level PressureIn, Min Sea Level PressureIn, Max VisibilityMiles, Mean VisibilityMiles, Min VisibilityMiles, Max Wind SpeedMPH, Mean Wind SpeedMPH, Max Gust SpeedMPH,PrecipitationIn, CloudCover, Events, WindDirDegrees
2013-8-1,77,65,55,66,62,54,100,86,62,30.06,29.99,29.90,10,9,1,10,2,,0.02,4,Rain,171
2013-8-2,75,68,61,66,63,60,100,91,76,29.89,29.83,29.77,10,5,0,7,2,,1.24,7,Fog-Rain-Thunderstorm,176
2013-8-3,75,66,57,63,59,55,100,90,59,29.84,29.80,29.74,10,5,0,8,1,,0.07,4,Fog-Rain,205
2013-8-4,79,66,54,63,57,53,97,78,45,29.84,29.79,29.75,10,10,8,9,1,21,0.07,2,Rain-Thunderstorm,300
2013-8-5,73,62,51,53,50,47,93,67,42,30.04,29.91,29.84,10,10,10,10,3,20,0.01,0,,300
2013-8-6,78,62,46,53,50,45,93,68,40,30.17,30.12,30.04,10,10,6,9,1,,0.00,1,,211
2013-8-7,73,60,48,63,57,46,94,81,51,30.21,30.18,30.15,10,10,10,7,2,,0.00,1,,179
2013-8-8,73,66,60,67,62,58,97,90,78,30.14,30.09,30.04,10,8,1,8,2,,0.22,6,Rain,162
2013-8-9,72,68,64,70,66,63,100,95,88,30.04,29.89,29.74,10,6,1,12,4,23,0.65,8,Rain-Thunderstorm,186
2013-8-10,80,70,55,67,60,47,100,78,32,30.00,29.82,29.74,10,6,0,9,2,18,0.00,3,Fog,259
2013-8-11,78,62,48,56,52,47,96,68,40,30.06,30.02,29.99,10,10,10,8,2,,0.00,0,,230
2013-8-12,80,66,54,59,56,52,97,73,45,30.01,29.96,29.92,10,10,10,8,1,,0.01,0,,199
2013-8-13,73,64,55,64,62,54,100,89,66,29.92,29.79,29.72,10,8,0,7,2,,0.00,5,Fog,168
2013-8-14,77,68,60,64,61,47,100,83,42,29.88,29.68,29.62,10,5,0,12,2,18,0.01,5,Fog-Rain,220
2013-8-15,75,62,50,57,50,46,93,63,38,30.03,29.99,29.91,10,10,10,8,2,,0.00,0,,238
2013-8-16,77,66,55,59,55,53,93,67,46,30.19,30.14,30.12,10,10,10,8,3,,0.00,1,,176
2013-8-17,79,63,51,59,54,49,97,72,43,30.28,30.25,30.20,10,10,8,8,2,,0.00,1,,211
2013-8-18,78,64,51,60,55,49,93,76,48,30.29,30.21,30.06,10,10,7,6,1,,0.00,0,,182
2013-8-19,82,68,53,64,58,53,100,78,46,30.06,29.97,29.90,10,7,0,8,1,,0.01,1,Fog,258
2013-8-20,84,72,60,64,61,58,93,71,47,30.08,30.03,29.96,10,10,6,10,1,,0.00,0,,217
2013-8-21,86,70,57,65,62,57,97,74,46,30.14,30.07,30.00,10,8,4,9,2,,0.00,0,,195
2013-8-22,86,72,60,67,63,58,94,76,48,30.00,29.89,29.77,10,7,2,10,2,17,0.00,0,,214
2013-8-23,78,70,55,66,55,48,87,61,39,30.16,29.95,29.78,10,10,6,7,2,18,0.00,1,,320
2013-8-24,78,62,46,52,48,43,93,65,30,30.32,30.27,30.17,10,10,10,6,1,,0.00,0,,300
2013-8-25,79,62,46,57,51,45,93,68,36,30.37,30.28,30.17,10,10,10,8,2,,0.00,0,,206
2013-8-26,78,68,57,66,61,55,93,83,65,30.14,29.98,29.88,10,9,5,7,2,,0.10,4,Rain,224
2013-8-27,82,70,59,66,63,58,96,76,58,29.91,29.89,29.86,10,9,5,9,2,,0.00,1,,138
2013-8-28,79,70,60,66,63,59,100,85,60,30.01,29.95,29.90,10,7,2,8,1,,0.08,3,Rain,168
2013-8-29,69,62,54,65,60,51,100,87,70,30.12,30.07,30.00,10,9,2,7,2,,0.00,6,,58
2013-8-30,78,66,53,64,59,51,97,78,62,30.03,29.90,29.78,10,10,8,10,2,,0.01,4,,221
2013-8-31,82,73,64,68,66,62,94,84,58,29.83,29.80,29.79,10,9,3,8,2,,0.09,5,Rain-Thunderstorm,150